createdAt,value
2022-08-31T00:00:57.668Z,64.37
2022-08-31T00:03:43.590Z,64.06
2022-08-31T00:06:11.129Z,63.68
2022-08-31T00:08:38.698Z,64.91
2022-08-31T00:11:09.789Z,64.34
2022-08-31T00:13:37.849Z,63.89
2022-08-31T00:16:07.301Z,64.28
2022-08-31T00:18:34.881Z,65.09
2022-08-31T00:21:02.428Z,64.24
2022-08-31T00:23:30.244Z,64.17
2022-08-31T00:25:57.915Z,64.83
2022-08-31T00:28:25.484Z,64.88
2022-08-31T00:30:53.134Z,64.91
2022-08-31T00:33:22.081Z,65.06
2022-08-31T00:35:49.678Z,64.90
2022-08-31T00:38:17.486Z,65.09
2022-08-31T00:40:47.734Z,64.82
2022-08-31T00:43:41.724Z,65.26
2022-08-31T00:46:10.562Z,65.12
2022-08-31T00:48:45.471Z,65.14
2022-08-31T00:51:18.705Z,64.95
2022-08-31T00:53:48.053Z,65.00
2022-08-31T00:56:19.350Z,65.22
2022-08-31T00:58:48.844Z,65.50
2022-08-31T01:01:22.479Z,65.47
2022-08-31T01:03:51.425Z,64.95
2022-08-31T01:06:19.773Z,65.50
2022-08-31T01:08:48.805Z,65.23
2022-08-31T01:11:19.331Z,65.94
2022-08-31T01:13:47.644Z,65.66
2022-08-31T01:16:19.953Z,65.38
2022-08-31T01:18:49.267Z,65.78
2022-08-31T01:21:26.966Z,66.04
2022-08-31T01:23:59.994Z,65.98
2022-08-31T01:26:30.045Z,65.75
2022-08-31T01:29:01.869Z,65.79
2022-08-31T01:31:34.503Z,66.29
2022-08-31T01:34:02.471Z,65.85
2022-08-31T01:36:31.614Z,65.80
2022-08-31T01:39:00.885Z,66.02
2022-08-31T01:41:28.596Z,66.34
2022-08-31T01:43:57.135Z,66.32
2022-08-31T01:46:25.054Z,66.55
2022-08-31T01:48:53.263Z,66.35
2022-08-31T01:51:22.845Z,67.12
2022-08-31T01:53:52.367Z,67.33
2022-08-31T01:56:24.230Z,66.58
2022-08-31T01:58:51.942Z,66.87
2022-08-31T02:01:33.718Z,66.74
2022-08-31T02:04:03.061Z,66.73
2022-08-31T02:06:31.852Z,67.29
2022-08-31T02:08:59.478Z,66.93
2022-08-31T02:11:28.537Z,66.89
2022-08-31T02:13:56.117Z,66.54
2022-08-31T02:16:23.799Z,66.64
2022-08-31T02:18:52.007Z,66.74
2022-08-31T02:21:19.916Z,66.73
2022-08-31T02:23:47.657Z,67.14
2022-08-31T02:26:15.329Z,66.99
2022-08-31T02:28:44.397Z,67.52
2022-08-31T02:31:12.056Z,67.00
2022-08-31T02:33:39.682Z,67.30
2022-08-31T02:36:08.205Z,66.82
2022-08-31T02:38:39.408Z,67.00
2022-08-31T02:41:07.725Z,67.39
2022-08-31T02:43:36.205Z,67.29
2022-08-31T02:46:05.317Z,67.84
2022-08-31T02:48:32.949Z,67.83
2022-08-31T02:51:05.900Z,67.04
2022-08-31T02:53:33.874Z,67.71
2022-08-31T02:56:01.810Z,68.28
2022-08-31T02:58:30.236Z,67.99
2022-08-31T03:00:59.133Z,67.54
2022-08-31T03:03:28.187Z,67.73
2022-08-31T03:05:55.811Z,67.78
2022-08-31T03:08:23.406Z,68.34
2022-08-31T03:10:51.000Z,67.73
2022-08-31T03:13:18.814Z,67.73
2022-08-31T03:15:46.756Z,67.67
2022-08-31T03:18:14.387Z,68.01
2022-08-31T03:20:43.355Z,67.75
2022-08-31T03:23:12.202Z,67.81
2022-08-31T03:25:39.978Z,67.69
2022-08-31T03:28:07.632Z,67.51
2022-08-31T03:30:35.733Z,67.17
2022-08-31T03:33:04.567Z,67.56
2022-08-31T03:35:32.588Z,67.66
2022-08-31T03:38:02.549Z,67.07
2022-08-31T03:40:30.376Z,67.43
2022-08-31T03:42:58.865Z,67.89
2022-08-31T03:45:27.884Z,67.74
2022-08-31T03:47:55.866Z,67.74
2022-08-31T03:50:23.623Z,67.42
2022-08-31T03:52:51.930Z,67.52
2022-08-31T03:55:21.382Z,67.94
2022-08-31T03:57:48.979Z,68.33
2022-08-31T04:00:17.413Z,67.77
2022-08-31T04:02:45.054Z,68.24
2022-08-31T04:05:14.305Z,68.12
2022-08-31T04:07:43.226Z,67.74
2022-08-31T04:10:12.155Z,67.76
2022-08-31T04:12:42.064Z,67.97
2022-08-31T04:15:11.060Z,67.91
2022-08-31T04:17:39.048Z,68.61
2022-08-31T04:20:07.964Z,68.13
2022-08-31T04:22:35.569Z,67.82
2022-08-31T04:25:03.360Z,68.42
2022-08-31T04:27:31.010Z,68.60
2022-08-31T04:29:59.962Z,68.29
2022-08-31T04:32:27.584Z,68.05
2022-08-31T04:34:58.048Z,68.22
2022-08-31T04:37:25.638Z,68.31
2022-08-31T04:39:53.248Z,68.33
2022-08-31T04:42:20.835Z,68.58
2022-08-31T04:44:48.515Z,68.45
2022-08-31T04:47:17.480Z,68.59
2022-08-31T04:49:45.057Z,68.80
2022-08-31T04:52:12.610Z,68.81
2022-08-31T04:54:40.185Z,68.65
2022-08-31T04:57:07.767Z,69.04
2022-08-31T04:59:35.364Z,69.30
2022-08-31T05:02:04.071Z,69.40
2022-08-31T05:04:33.191Z,69.00
2022-08-31T05:07:00.934Z,68.98
2022-08-31T05:09:28.792Z,69.21
2022-08-31T05:11:56.931Z,69.02
2022-08-31T05:14:25.503Z,69.24
2022-08-31T05:16:53.606Z,68.75
2022-08-31T05:19:21.646Z,68.96
2022-08-31T05:21:50.689Z,69.06
2022-08-31T05:24:21.642Z,69.09
2022-08-31T05:26:50.990Z,69.55
2022-08-31T05:29:20.775Z,69.65
2022-08-31T05:31:52.206Z,69.40
2022-08-31T05:34:22.842Z,69.83
2022-08-31T05:36:54.361Z,69.02
2022-08-31T05:39:22.128Z,69.09
2022-08-31T05:41:49.907Z,69.09
2022-08-31T05:44:20.592Z,69.81
2022-08-31T05:46:52.377Z,69.20
2022-08-31T05:49:28.102Z,69.60
2022-08-31T05:51:58.978Z,70.06
2022-08-31T05:54:26.623Z,69.74
2022-08-31T05:56:54.209Z,69.39
2022-08-31T05:59:29.041Z,70.01
2022-08-31T06:01:56.706Z,70.89
2022-08-31T06:04:24.469Z,70.48
2022-08-31T06:06:52.869Z,69.37
2022-08-31T06:09:21.985Z,70.25
2022-08-31T06:11:51.238Z,70.45
2022-08-31T06:14:19.181Z,70.29
2022-08-31T06:16:48.742Z,70.02
2022-08-31T06:19:16.952Z,70.17
2022-08-31T06:21:50.853Z,69.35
2022-08-31T06:24:19.591Z,70.10
2022-08-31T06:26:58.789Z,70.07
2022-08-31T06:29:29.372Z,69.80
2022-08-31T06:31:56.977Z,69.49
2022-08-31T06:34:25.035Z,70.25
2022-08-31T06:36:52.782Z,69.54
2022-08-31T06:39:20.396Z,69.95
2022-08-31T06:41:52.529Z,69.99
2022-08-31T06:44:22.257Z,70.87
2022-08-31T06:46:49.857Z,73.10
2022-08-31T06:49:18.114Z,72.01
2022-08-31T06:51:45.858Z,72.78
2022-08-31T06:54:28.987Z,71.08
2022-08-31T06:56:59.825Z,72.59
2022-08-31T06:59:29.566Z,72.71
2022-08-31T07:01:58.257Z,72.03
2022-08-31T07:04:26.213Z,72.02
2022-08-31T07:06:54.122Z,71.91
2022-08-31T07:09:21.735Z,71.17
2022-08-31T07:11:52.119Z,70.45
2022-08-31T07:14:24.097Z,71.10
2022-08-31T07:16:53.276Z,71.79
2022-08-31T07:19:22.006Z,71.75
2022-08-31T07:21:51.648Z,72.84
2022-08-31T07:24:23.918Z,72.28
2022-08-31T07:26:54.338Z,70.87
2022-08-31T07:29:24.857Z,70.38
2022-08-31T07:31:52.996Z,72.08
2022-08-31T07:34:25.633Z,71.53
2022-08-31T07:37:11.790Z,69.86
2022-08-31T07:39:57.747Z,69.79
2022-08-31T07:42:28.610Z,69.35
2022-08-31T07:44:59.709Z,70.37
2022-08-31T07:47:30.306Z,71.41
2022-08-31T07:50:00.608Z,69.87
2022-08-31T07:52:32.102Z,70.83
2022-08-31T07:55:09.341Z,70.18
2022-08-31T07:57:42.198Z,70.23
2022-08-31T08:00:14.510Z,70.51
2022-08-31T08:02:46.257Z,70.79
2022-08-31T08:05:26.802Z,70.56
2022-08-31T08:07:57.263Z,70.82
2022-08-31T08:10:26.184Z,70.89
2022-08-31T08:13:05.196Z,71.22
2022-08-31T08:15:45.036Z,71.04
2022-08-31T08:18:13.359Z,70.72
2022-08-31T08:20:41.340Z,69.97
2022-08-31T08:23:14.041Z,70.04
2022-08-31T08:25:43.210Z,70.84
2022-08-31T08:28:28.896Z,70.25
2022-08-31T08:31:01.660Z,69.79
2022-08-31T08:33:29.783Z,70.24
2022-08-31T08:35:58.679Z,70.42
2022-08-31T08:38:27.249Z,69.75
2022-08-31T08:40:54.965Z,70.20
2022-08-31T08:43:30.949Z,69.82
2022-08-31T08:46:15.203Z,69.75
2022-08-31T08:48:55.415Z,69.86
2022-08-31T08:51:37.221Z,69.62
2022-08-31T08:54:10.994Z,70.20
2022-08-31T08:56:47.035Z,69.45
2022-08-31T08:59:19.265Z,69.18
2022-08-31T09:01:52.961Z,69.13
2022-08-31T09:04:32.663Z,68.74
2022-08-31T09:07:20.961Z,68.73
2022-08-31T09:09:58.268Z,68.65
2022-08-31T09:12:38.374Z,68.35
2022-08-31T09:15:36.247Z,67.81
2022-08-31T09:18:14.246Z,67.68
2022-08-31T09:20:43.423Z,67.73
2022-08-31T09:23:14.213Z,67.41
2022-08-31T09:25:52.176Z,67.35
2022-08-31T09:28:25.050Z,67.34
2022-08-31T09:30:53.158Z,67.00
2022-08-31T09:33:25.715Z,66.38
2022-08-31T09:35:56.625Z,67.26
2022-08-31T09:38:30.372Z,66.68
2022-08-31T09:40:58.362Z,66.38
2022-08-31T09:43:35.133Z,66.61
2022-08-31T09:46:07.254Z,65.89
2022-08-31T09:48:51.387Z,65.65
2022-08-31T09:51:25.402Z,65.31
2022-08-31T09:54:11.447Z,64.97
2022-08-31T09:56:55.428Z,65.10
2022-08-31T09:59:37.280Z,65.18
2022-08-31T10:02:11.280Z,65.42
2022-08-31T10:04:52.227Z,65.07
2022-08-31T10:07:37.617Z,65.20
2022-08-31T10:10:28.007Z,64.72
2022-08-31T10:13:00.351Z,64.48
2022-08-31T10:15:33.526Z,64.60
2022-08-31T10:18:11.808Z,65.62
2022-08-31T10:20:46.520Z,64.89
2022-08-31T10:23:21.969Z,64.52
2022-08-31T10:25:58.337Z,64.23
2022-08-31T10:28:36.540Z,64.93
2022-08-31T10:31:07.480Z,64.21
2022-08-31T10:33:54.042Z,64.43
2022-08-31T10:36:27.690Z,63.90
2022-08-31T10:38:57.777Z,64.45
2022-08-31T10:41:30.757Z,64.30
2022-08-31T10:44:05.506Z,64.01
2022-08-31T10:46:34.329Z,63.97
2022-08-31T10:49:04.077Z,64.01
2022-08-31T10:51:42.015Z,64.37
2022-08-31T10:54:32.157Z,63.93
2022-08-31T10:57:09.143Z,63.52
2022-08-31T10:59:56.038Z,63.96
2022-08-31T11:02:44.033Z,63.59
2022-08-31T11:05:27.020Z,63.25
2022-08-31T11:08:03.641Z,63.53
2022-08-31T11:10:47.169Z,63.23
2022-08-31T11:13:36.070Z,63.46
2022-08-31T11:16:30.934Z,63.05
2022-08-31T11:19:18.545Z,63.22
2022-08-31T11:22:13.927Z,62.99
2022-08-31T11:25:07.570Z,63.17
2022-08-31T11:27:39.595Z,63.39
2022-08-31T11:30:24.490Z,63.03
2022-08-31T11:32:56.865Z,62.66
2022-08-31T11:36:03.869Z,62.38
2022-08-31T11:38:54.515Z,62.18
2022-08-31T11:41:39.484Z,63.00
2022-08-31T11:44:08.845Z,62.54
2022-08-31T11:47:05.088Z,62.10
2022-08-31T11:49:43.697Z,62.37
2022-08-31T11:52:29.302Z,62.50
2022-08-31T11:55:02.888Z,62.50
2022-08-31T11:57:37.609Z,62.74
2022-08-31T12:00:20.341Z,62.50
2022-08-31T12:03:04.476Z,61.87
2022-08-31T12:05:56.227Z,61.79
2022-08-31T12:08:27.303Z,62.91
2022-08-31T12:11:02.183Z,62.73
2022-08-31T12:13:45.856Z,62.65
2022-08-31T12:16:30.087Z,63.05
2022-08-31T12:19:13.463Z,62.51
2022-08-31T12:22:06.862Z,62.61
2022-08-31T12:24:49.521Z,62.69
2022-08-31T12:27:28.303Z,62.43
2022-08-31T12:30:16.488Z,62.21
2022-08-31T12:32:47.778Z,62.43
2022-08-31T12:35:19.181Z,62.21
2022-08-31T12:37:57.759Z,62.66
2022-08-31T12:40:26.535Z,62.15
2022-08-31T12:43:05.571Z,62.24
2022-08-31T12:46:05.816Z,62.34
2022-08-31T12:48:51.552Z,61.88
2022-08-31T12:51:40.191Z,62.18
2022-08-31T12:54:40.217Z,61.50
2022-08-31T12:57:18.275Z,61.93
2022-08-31T13:00:03.156Z,61.10
2022-08-31T13:02:35.767Z,61.27
2022-08-31T13:05:03.695Z,61.25
2022-08-31T13:07:34.047Z,61.40
2022-08-31T13:10:08.798Z,62.08
2022-08-31T13:12:37.372Z,62.43
2022-08-31T13:15:05.806Z,62.96
2022-08-31T13:17:38.812Z,64.09
2022-08-31T13:20:08.491Z,64.11
2022-08-31T13:22:41.150Z,64.59
2022-08-31T13:25:16.651Z,65.53
2022-08-31T13:27:49.651Z,66.52
2022-08-31T13:30:20.362Z,68.06
2022-08-31T13:32:52.392Z,70.53
2022-08-31T13:35:22.973Z,73.16
2022-08-31T13:38:03.842Z,73.26
2022-08-31T13:40:35.601Z,74.19
2022-08-31T13:43:04.280Z,74.18
2022-08-31T13:45:34.448Z,72.87
2022-08-31T13:48:10.386Z,72.44
2022-08-31T13:50:52.310Z,72.58
2022-08-31T13:53:37.951Z,72.49
2022-08-31T13:56:39.051Z,73.90
2022-08-31T13:59:28.668Z,72.79
2022-08-31T14:01:58.831Z,74.20
2022-08-31T14:04:48.517Z,74.74
2022-08-31T14:07:21.305Z,73.25
2022-08-31T14:09:53.063Z,74.19
2022-08-31T14:12:34.684Z,74.74
2022-08-31T14:15:09.292Z,73.71
2022-08-31T14:17:42.495Z,73.36
2022-08-31T14:20:33.909Z,73.60
2022-08-31T14:23:29.102Z,73.79
2022-08-31T14:25:58.820Z,74.15
2022-08-31T14:28:38.660Z,73.88
2022-08-31T14:31:15.507Z,75.56
2022-08-31T14:33:44.520Z,76.98
2022-08-31T14:36:16.071Z,77.20
2022-08-31T14:38:45.907Z,76.47
2022-08-31T14:41:16.778Z,75.21
2022-08-31T14:43:45.989Z,76.05
2022-08-31T14:46:20.274Z,78.93
2022-08-31T14:48:47.826Z,76.08
2022-08-31T14:51:16.855Z,78.93
2022-08-31T14:53:44.377Z,77.38
2022-08-31T14:56:20.495Z,80.03
2022-08-31T14:58:49.838Z,79.44
2022-08-31T15:01:17.871Z,80.12
2022-08-31T15:03:45.609Z,79.42
2022-08-31T15:06:13.868Z,77.30
2022-08-31T15:08:42.776Z,81.22
2022-08-31T15:11:11.086Z,81.81
2022-08-31T15:13:39.339Z,79.46
2022-08-31T15:16:08.120Z,81.32
2022-08-31T15:18:36.924Z,79.91
2022-08-31T15:21:07.022Z,79.52
2022-08-31T15:23:35.510Z,78.85
2022-08-31T15:26:08.062Z,79.77
2022-08-31T15:28:37.561Z,77.91
2022-08-31T15:31:11.910Z,78.26
2022-08-31T15:33:44.151Z,75.85
2022-08-31T15:36:15.528Z,75.75
2022-08-31T15:38:45.390Z,78.65
2022-08-31T15:41:14.305Z,79.86
2022-08-31T15:43:42.290Z,77.68
2022-08-31T15:46:13.767Z,79.13
2022-08-31T15:48:45.262Z,78.00
2022-08-31T15:51:23.546Z,79.10
2022-08-31T15:54:11.918Z,79.29
2022-08-31T15:56:43.868Z,79.24
2022-08-31T15:59:12.166Z,79.13
2022-08-31T16:01:40.615Z,76.79
2022-08-31T16:04:11.407Z,75.91
2022-08-31T16:06:39.414Z,75.84
2022-08-31T16:09:08.200Z,77.60
2022-08-31T16:11:37.963Z,75.78
2022-08-31T16:14:10.963Z,76.56
2022-08-31T16:16:41.911Z,76.91
2022-08-31T16:19:27.816Z,77.38
2022-08-31T16:22:00.155Z,75.88
2022-08-31T16:24:27.787Z,75.45
2022-08-31T16:26:57.722Z,76.43
2022-08-31T16:29:29.599Z,76.10
2022-08-31T16:31:57.680Z,75.31
2022-08-31T16:34:28.917Z,77.18
2022-08-31T16:36:57.218Z,75.67
2022-08-31T16:39:27.992Z,75.00
2022-08-31T16:41:55.952Z,75.60
2022-08-31T16:44:23.909Z,75.56
2022-08-31T16:47:01.184Z,74.98
2022-08-31T16:49:33.975Z,74.29
2022-08-31T16:52:03.442Z,74.58
2022-08-31T16:54:31.464Z,74.35
2022-08-31T16:56:59.176Z,74.37
2022-08-31T16:59:28.294Z,74.19
2022-08-31T17:01:56.304Z,74.29
2022-08-31T17:04:50.476Z,74.59
2022-08-31T17:07:15.261Z,75.19
2022-08-31T17:09:43.655Z,74.07
2022-08-31T17:12:16.004Z,73.25
2022-08-31T17:14:52.393Z,73.99
2022-08-31T17:17:23.102Z,74.16
2022-08-31T17:19:53.311Z,74.16
2022-08-31T17:22:29.951Z,73.20
2022-08-31T17:25:03.646Z,74.66
2022-08-31T17:27:33.329Z,73.93
2022-08-31T17:30:01.314Z,73.80
2022-08-31T17:32:29.869Z,73.88
2022-08-31T17:34:59.325Z,74.10
2022-08-31T17:37:32.777Z,73.86
2022-08-31T17:40:00.824Z,73.35
2022-08-31T17:42:29.770Z,73.74
2022-08-31T17:44:58.201Z,73.16
2022-08-31T17:47:27.006Z,72.62
2022-08-31T17:49:55.181Z,73.00
2022-08-31T17:52:24.117Z,73.25
2022-08-31T17:54:52.361Z,72.68
2022-08-31T17:57:25.220Z,73.14
2022-08-31T17:59:55.140Z,73.25
2022-08-31T18:02:27.578Z,72.88
2022-08-31T18:04:55.286Z,74.54
2022-08-31T18:07:24.272Z,73.05
2022-08-31T18:09:51.943Z,73.56
2022-08-31T18:12:22.045Z,72.28
2022-08-31T18:14:50.001Z,73.86
2022-08-31T18:17:18.479Z,73.93
2022-08-31T18:19:46.618Z,74.00
2022-08-31T18:22:14.919Z,74.14
2022-08-31T18:24:44.233Z,73.70
2022-08-31T18:27:15.222Z,74.17
2022-08-31T18:29:44.468Z,74.28
2022-08-31T18:32:13.026Z,73.08
2022-08-31T18:34:47.071Z,72.62
2022-08-31T18:37:16.421Z,74.18
2022-08-31T18:40:05.311Z,74.32
2022-08-31T18:42:53.253Z,73.63
2022-08-31T18:45:22.182Z,73.66
2022-08-31T18:50:42.435Z,75.20
2022-08-31T18:53:11.048Z,73.39
2022-08-31T18:55:45.459Z,74.93
2022-08-31T18:58:13.928Z,73.42
2022-08-31T19:00:41.778Z,72.87
2022-08-31T19:03:12.948Z,73.36
2022-08-31T19:05:42.159Z,72.87
2022-08-31T19:08:09.854Z,72.85
2022-08-31T19:10:37.573Z,74.83
2022-08-31T19:13:09.421Z,74.38
2022-08-31T19:15:39.322Z,72.86
2022-08-31T19:18:07.398Z,72.37
2022-08-31T19:20:36.133Z,75.02
2022-08-31T19:23:04.085Z,75.48
2022-08-31T19:25:33.019Z,72.50
2022-08-31T19:28:01.868Z,72.55
2022-08-31T19:30:32.288Z,72.86
2022-08-31T19:33:07.517Z,71.74
2022-08-31T19:35:36.498Z,71.36
2022-08-31T19:38:04.387Z,72.01
2022-08-31T19:40:37.837Z,71.23
2022-08-31T19:46:09.462Z,71.81
2022-08-31T19:48:43.989Z,71.48
2022-08-31T19:51:12.184Z,70.69
2022-08-31T19:53:40.374Z,70.86
2022-08-31T19:56:16.451Z,70.76
2022-08-31T19:58:45.739Z,71.06
2022-08-31T20:01:15.702Z,70.65
2022-08-31T20:03:44.078Z,71.41
2022-08-31T20:06:13.913Z,71.51
2022-08-31T20:08:43.555Z,70.88
2022-08-31T20:11:16.016Z,71.26
2022-08-31T20:13:46.043Z,71.65
2022-08-31T20:16:15.168Z,71.23
2022-08-31T20:18:44.483Z,71.81
2022-08-31T20:21:17.269Z,71.53
2022-08-31T20:23:47.845Z,71.54
2022-08-31T20:26:16.867Z,71.32
2022-08-31T20:28:46.816Z,71.34
2022-08-31T20:31:16.987Z,71.38
2022-08-31T20:33:46.862Z,71.34
2022-08-31T20:36:18.951Z,71.36
2022-08-31T20:38:46.824Z,71.90
2022-08-31T20:41:15.157Z,71.88
2022-08-31T20:43:44.649Z,72.03
2022-08-31T20:46:34.357Z,71.67
2022-08-31T20:49:20.692Z,71.57
2022-08-31T20:51:48.361Z,71.53
2022-08-31T20:54:17.334Z,71.84
2022-08-31T20:56:45.444Z,71.92
2022-08-31T20:59:13.029Z,71.77
2022-08-31T21:01:41.541Z,72.30
2022-08-31T21:04:10.587Z,72.21
2022-08-31T21:06:39.102Z,72.68
2022-08-31T21:09:08.154Z,72.51
2022-08-31T21:11:40.602Z,72.41
2022-08-31T21:14:08.545Z,72.12
2022-08-31T21:16:36.358Z,72.51
2022-08-31T21:19:04.786Z,72.87
2022-08-31T21:21:33.726Z,73.06
2022-08-31T21:24:01.651Z,73.21
2022-08-31T21:26:29.270Z,72.87
2022-08-31T21:28:57.971Z,72.77
2022-08-31T21:31:29.063Z,73.15
2022-08-31T21:33:59.405Z,72.83
2022-08-31T21:36:27.906Z,73.14
2022-08-31T21:38:58.335Z,73.05
2022-08-31T21:41:28.289Z,72.93
2022-08-31T21:43:56.922Z,72.87
2022-08-31T21:46:27.513Z,73.16
2022-08-31T21:48:57.503Z,72.89
2022-08-31T21:51:28.115Z,72.98
2022-08-31T21:54:00.744Z,73.16
2022-08-31T21:56:30.583Z,73.44
2022-08-31T21:58:58.941Z,73.40
2022-08-31T22:01:29.431Z,73.27
2022-08-31T22:03:59.107Z,73.25
2022-08-31T22:06:31.009Z,73.28
2022-08-31T22:09:02.693Z,73.36
2022-08-31T22:11:32.561Z,73.21
2022-08-31T22:14:00.513Z,73.22
2022-08-31T22:16:28.210Z,73.47
2022-08-31T22:19:01.418Z,73.35
2022-08-31T22:21:32.329Z,73.59
2022-08-31T22:24:04.751Z,73.59
2022-08-31T22:26:35.503Z,73.34
2022-08-31T22:29:03.204Z,73.52
2022-08-31T22:31:31.192Z,73.57
2022-08-31T22:33:58.840Z,73.42
2022-08-31T22:36:32.379Z,74.04
2022-08-31T22:39:03.162Z,73.78
2022-08-31T22:41:31.876Z,73.47
2022-08-31T22:43:59.998Z,73.27
2022-08-31T22:46:27.888Z,74.29
2022-08-31T22:48:55.613Z,73.76
2022-08-31T22:51:23.407Z,73.91
2022-08-31T22:53:51.780Z,73.90
2022-08-31T22:56:26.030Z,73.79
2022-08-31T22:58:55.116Z,73.90
2022-08-31T23:01:24.754Z,73.79
2022-08-31T23:03:53.025Z,74.13
2022-08-31T23:06:23.214Z,73.61
2022-08-31T23:08:52.270Z,74.05
2022-08-31T23:11:22.619Z,73.80
2022-08-31T23:13:56.497Z,73.89
2022-08-31T23:16:27.012Z,73.91
2022-08-31T23:18:57.601Z,74.28
2022-08-31T23:21:25.821Z,74.32
2022-08-31T23:23:53.944Z,74.24
2022-08-31T23:26:24.919Z,74.29
2022-08-31T23:28:53.550Z,74.39
2022-08-31T23:31:21.955Z,74.17
2022-08-31T23:33:53.157Z,74.18
2022-08-31T23:36:24.132Z,74.41
2022-08-31T23:38:53.018Z,74.41
2022-08-31T23:41:25.748Z,74.18
2022-08-31T23:43:56.677Z,74.19
2022-08-31T23:46:25.463Z,74.20
2022-08-31T23:48:53.545Z,74.10
2022-08-31T23:51:23.225Z,74.29
2022-08-31T23:53:53.953Z,74.07
2022-08-31T23:56:22.746Z,73.88
2022-08-31T23:58:50.267Z,74.18
